sensor_id;sensor_type;location;lat;lon;timestamp;P1;durP1;ratioP1;P2;durP2;ratioP2
78672;SDS011;67988;60.086;30.354;2023-07-02T00:01:48;5.47;;;2.45;;
78672;SDS011;67988;60.086;30.354;2023-07-02T00:04:16;7.05;;;3.38;;
78672;SDS011;67988;60.086;30.354;2023-07-02T00:06:46;6.38;;;3.10;;
78672;SDS011;67988;60.086;30.354;2023-07-02T00:09:13;5.13;;;2.78;;
78672;SDS011;67988;60.086;30.354;2023-07-02T00:11:41;4.93;;;2.45;;
78672;SDS011;67988;60.086;30.354;2023-07-02T00:14:11;5.47;;;4.10;;
78672;SDS011;67988;60.086;30.354;2023-07-02T00:16:41;4.82;;;2.95;;
78672;SDS011;67988;60.086;30.354;2023-07-02T00:19:10;4.00;;;2.85;;
78672;SDS011;67988;60.086;30.354;2023-07-02T00:21:37;4.57;;;2.60;;
78672;SDS011;67988;60.086;30.354;2023-07-02T00:24:07;4.70;;;2.78;;
78672;SDS011;67988;60.086;30.354;2023-07-02T00:26:35;4.65;;;3.10;;
78672;SDS011;67988;60.086;30.354;2023-07-02T00:29:03;5.80;;;2.53;;
78672;SDS011;67988;60.086;30.354;2023-07-02T00:31:33;4.28;;;2.92;;
78672;SDS011;67988;60.086;30.354;2023-07-02T00:34:01;5.28;;;2.88;;
78672;SDS011;67988;60.086;30.354;2023-07-02T00:36:28;7.15;;;3.03;;
78672;SDS011;67988;60.086;30.354;2023-07-02T00:38:56;7.07;;;3.05;;
78672;SDS011;67988;60.086;30.354;2023-07-02T00:41:25;4.38;;;2.63;;
78672;SDS011;67988;60.086;30.354;2023-07-02T00:43:52;7.60;;;2.92;;
78672;SDS011;67988;60.086;30.354;2023-07-02T00:46:20;4.15;;;3.00;;
78672;SDS011;67988;60.086;30.354;2023-07-02T00:48:51;4.32;;;2.78;;
78672;SDS011;67988;60.086;30.354;2023-07-02T00:51:20;9.43;;;3.08;;
78672;SDS011;67988;60.086;30.354;2023-07-02T00:53:49;4.88;;;2.20;;
78672;SDS011;67988;60.086;30.354;2023-07-02T00:56:18;5.38;;;3.05;;
78672;SDS011;67988;60.086;30.354;2023-07-02T00:58:48;9.82;;;3.45;;
78672;SDS011;67988;60.086;30.354;2023-07-02T01:01:17;10.05;;;3.47;;
78672;SDS011;67988;60.086;30.354;2023-07-02T01:03:49;22.25;;;5.20;;
78672;SDS011;67988;60.086;30.354;2023-07-02T01:06:19;5.93;;;3.72;;
78672;SDS011;67988;60.086;30.354;2023-07-02T01:08:52;15.13;;;4.82;;
78672;SDS011;67988;60.086;30.354;2023-07-02T01:11:21;10.50;;;4.47;;
78672;SDS011;67988;60.086;30.354;2023-07-02T01:13:54;8.48;;;3.70;;
78672;SDS011;67988;60.086;30.354;2023-07-02T01:16:26;7.90;;;4.18;;
78672;SDS011;67988;60.086;30.354;2023-07-02T01:18:56;9.23;;;3.85;;
78672;SDS011;67988;60.086;30.354;2023-07-02T01:21:25;7.03;;;4.95;;
78672;SDS011;67988;60.086;30.354;2023-07-02T01:23:53;6.35;;;4.82;;
78672;SDS011;67988;60.086;30.354;2023-07-02T01:26:20;14.82;;;5.55;;
78672;SDS011;67988;60.086;30.354;2023-07-02T01:28:47;11.93;;;7.60;;
78672;SDS011;67988;60.086;30.354;2023-07-02T01:31:14;12.10;;;6.88;;
78672;SDS011;67988;60.086;30.354;2023-07-02T01:33:41;9.13;;;6.50;;
78672;SDS011;67988;60.086;30.354;2023-07-02T01:36:08;8.10;;;6.63;;
78672;SDS011;67988;60.086;30.354;2023-07-02T01:38:37;11.57;;;5.95;;
78672;SDS011;67988;60.086;30.354;2023-07-02T01:41:04;8.90;;;6.22;;
78672;SDS011;67988;60.086;30.354;2023-07-02T01:43:31;9.10;;;6.05;;
78672;SDS011;67988;60.086;30.354;2023-07-02T01:45:58;8.65;;;5.95;;
78672;SDS011;67988;60.086;30.354;2023-07-02T01:48:27;9.63;;;6.28;;
78672;SDS011;67988;60.086;30.354;2023-07-02T01:50:54;7.85;;;5.50;;
78672;SDS011;67988;60.086;30.354;2023-07-02T01:53:21;9.07;;;6.68;;
78672;SDS011;67988;60.086;30.354;2023-07-02T01:55:50;10.43;;;6.13;;
78672;SDS011;67988;60.086;30.354;2023-07-02T01:58:17;13.25;;;5.97;;
78672;SDS011;67988;60.086;30.354;2023-07-02T02:00:44;7.72;;;4.78;;
78672;SDS011;67988;60.086;30.354;2023-07-02T02:03:11;8.65;;;6.13;;
78672;SDS011;67988;60.086;30.354;2023-07-02T02:05:38;6.88;;;4.85;;
78672;SDS011;67988;60.086;30.354;2023-07-02T02:08:05;18.02;;;6.00;;
78672;SDS011;67988;60.086;30.354;2023-07-02T02:10:32;7.53;;;5.38;;
78672;SDS011;67988;60.086;30.354;2023-07-02T02:13:00;8.98;;;5.97;;
78672;SDS011;67988;60.086;30.354;2023-07-02T02:15:27;8.23;;;4.75;;
78672;SDS011;67988;60.086;30.354;2023-07-02T02:17:54;9.55;;;3.75;;
78672;SDS011;67988;60.086;30.354;2023-07-02T02:20:21;6.65;;;4.35;;
78672;SDS011;67988;60.086;30.354;2023-07-02T02:22:49;6.40;;;4.70;;
78672;SDS011;67988;60.086;30.354;2023-07-02T02:25:16;6.50;;;4.72;;
78672;SDS011;67988;60.086;30.354;2023-07-02T02:27:43;6.32;;;4.15;;
78672;SDS011;67988;60.086;30.354;2023-07-02T02:30:12;7.43;;;5.22;;
78672;SDS011;67988;60.086;30.354;2023-07-02T02:32:39;5.00;;;4.50;;
78672;SDS011;67988;60.086;30.354;2023-07-02T02:35:09;7.68;;;4.80;;
78672;SDS011;67988;60.086;30.354;2023-07-02T02:37:37;6.13;;;4.95;;
78672;SDS011;67988;60.086;30.354;2023-07-02T02:40:06;7.00;;;5.15;;
78672;SDS011;67988;60.086;30.354;2023-07-02T02:42:36;7.97;;;5.15;;
78672;SDS011;67988;60.086;30.354;2023-07-02T02:45:05;8.18;;;5.22;;
78672;SDS011;67988;60.086;30.354;2023-07-02T02:47:35;6.90;;;5.00;;
78672;SDS011;67988;60.086;30.354;2023-07-02T02:50:02;7.20;;;5.65;;
78672;SDS011;67988;60.086;30.354;2023-07-02T02:52:30;7.03;;;4.20;;
78672;SDS011;67988;60.086;30.354;2023-07-02T02:54:57;5.47;;;3.33;;
78672;SDS011;67988;60.086;30.354;2023-07-02T02:57:24;4.50;;;3.60;;
78672;SDS011;67988;60.086;30.354;2023-07-02T02:59:51;4.53;;;3.88;;
78672;SDS011;67988;60.086;30.354;2023-07-02T03:02:19;6.15;;;3.45;;
78672;SDS011;67988;60.086;30.354;2023-07-02T03:04:47;5.35;;;3.00;;
78672;SDS011;67988;60.086;30.354;2023-07-02T03:07:14;5.13;;;3.15;;
78672;SDS011;67988;60.086;30.354;2023-07-02T03:09:41;4.00;;;1.83;;
78672;SDS011;67988;60.086;30.354;2023-07-02T03:12:09;4.97;;;2.95;;
78672;SDS011;67988;60.086;30.354;2023-07-02T03:14:36;8.40;;;3.20;;
78672;SDS011;67988;60.086;30.354;2023-07-02T03:17:03;4.25;;;3.30;;
78672;SDS011;67988;60.086;30.354;2023-07-02T03:19:30;8.32;;;4.85;;
78672;SDS011;67988;60.086;30.354;2023-07-02T03:21:59;6.70;;;3.33;;
78672;SDS011;67988;60.086;30.354;2023-07-02T03:24:26;5.97;;;4.70;;
78672;SDS011;67988;60.086;30.354;2023-07-02T03:26:53;9.32;;;4.30;;
78672;SDS011;67988;60.086;30.354;2023-07-02T03:29:20;5.60;;;4.60;;
78672;SDS011;67988;60.086;30.354;2023-07-02T03:31:47;5.50;;;3.65;;
78672;SDS011;67988;60.086;30.354;2023-07-02T03:34:14;5.28;;;4.25;;
78672;SDS011;67988;60.086;30.354;2023-07-02T03:36:41;6.20;;;3.35;;
78672;SDS011;67988;60.086;30.354;2023-07-02T03:39:10;5.10;;;3.45;;
78672;SDS011;67988;60.086;30.354;2023-07-02T03:41:37;7.78;;;4.43;;
78672;SDS011;67988;60.086;30.354;2023-07-02T03:44:05;5.25;;;4.10;;
78672;SDS011;67988;60.086;30.354;2023-07-02T03:46:32;5.72;;;2.92;;
78672;SDS011;67988;60.086;30.354;2023-07-02T03:48:59;4.78;;;2.75;;
78672;SDS011;67988;60.086;30.354;2023-07-02T03:51:26;3.13;;;2.45;;
78672;SDS011;67988;60.086;30.354;2023-07-02T03:53:53;2.08;;;1.65;;
78672;SDS011;67988;60.086;30.354;2023-07-02T03:56:21;2.42;;;1.60;;
78672;SDS011;67988;60.086;30.354;2023-07-02T03:58:48;2.20;;;1.80;;
78672;SDS011;67988;60.086;30.354;2023-07-02T04:01:15;2.45;;;1.33;;
78672;SDS011;67988;60.086;30.354;2023-07-02T04:03:47;3.17;;;2.10;;
78672;SDS011;67988;60.086;30.354;2023-07-02T04:06:15;1.85;;;0.60;;
78672;SDS011;67988;60.086;30.354;2023-07-02T04:08:42;3.70;;;2.47;;
78672;SDS011;67988;60.086;30.354;2023-07-02T04:11:09;5.68;;;2.90;;
78672;SDS011;67988;60.086;30.354;2023-07-02T04:13:38;6.00;;;2.17;;
78672;SDS011;67988;60.086;30.354;2023-07-02T04:16:06;4.68;;;1.42;;
78672;SDS011;67988;60.086;30.354;2023-07-02T04:18:33;3.45;;;2.47;;
78672;SDS011;67988;60.086;30.354;2023-07-02T04:21:01;2.72;;;1.73;;
78672;SDS011;67988;60.086;30.354;2023-07-02T04:23:28;2.08;;;1.83;;
78672;SDS011;67988;60.086;30.354;2023-07-02T04:25:55;6.68;;;1.40;;
78672;SDS011;67988;60.086;30.354;2023-07-02T04:28:22;2.75;;;1.55;;
78672;SDS011;67988;60.086;30.354;2023-07-02T04:30:51;3.25;;;2.20;;
78672;SDS011;67988;60.086;30.354;2023-07-02T04:33:18;3.47;;;2.97;;
78672;SDS011;67988;60.086;30.354;2023-07-02T04:35:46;3.40;;;2.67;;
78672;SDS011;67988;60.086;30.354;2023-07-02T04:38:13;6.80;;;3.40;;
78672;SDS011;67988;60.086;30.354;2023-07-02T04:40:40;5.32;;;3.33;;
78672;SDS011;67988;60.086;30.354;2023-07-02T04:43:10;5.32;;;3.50;;
78672;SDS011;67988;60.086;30.354;2023-07-02T04:48:06;3.92;;;3.08;;
78672;SDS011;67988;60.086;30.354;2023-07-02T04:50:33;4.60;;;2.88;;
78672;SDS011;67988;60.086;30.354;2023-07-02T04:53:00;3.03;;;2.53;;
78672;SDS011;67988;60.086;30.354;2023-07-02T04:55:27;6.00;;;3.63;;
78672;SDS011;67988;60.086;30.354;2023-07-02T04:57:54;4.20;;;2.95;;
78672;SDS011;67988;60.086;30.354;2023-07-02T05:00:21;4.55;;;3.15;;
78672;SDS011;67988;60.086;30.354;2023-07-02T05:02:48;5.93;;;3.25;;
78672;SDS011;67988;60.086;30.354;2023-07-02T05:05:17;5.07;;;2.28;;
78672;SDS011;67988;60.086;30.354;2023-07-02T05:07:44;4.18;;;2.92;;
78672;SDS011;67988;60.086;30.354;2023-07-02T05:10:11;5.35;;;3.05;;
78672;SDS011;67988;60.086;30.354;2023-07-02T05:12:39;5.28;;;2.97;;
78672;SDS011;67988;60.086;30.354;2023-07-02T05:15:06;4.97;;;3.95;;
78672;SDS011;67988;60.086;30.354;2023-07-02T05:17:34;5.03;;;3.60;;
78672;SDS011;67988;60.086;30.354;2023-07-02T05:22:30;3.85;;;2.55;;
78672;SDS011;67988;60.086;30.354;2023-07-02T05:24:57;4.40;;;2.42;;
78672;SDS011;67988;60.086;30.354;2023-07-02T05:27:24;4.28;;;2.22;;
78672;SDS011;67988;60.086;30.354;2023-07-02T05:29:51;5.07;;;2.92;;
78672;SDS011;67988;60.086;30.354;2023-07-02T05:32:18;4.32;;;3.92;;
78672;SDS011;67988;60.086;30.354;2023-07-02T05:34:45;4.90;;;3.05;;
78672;SDS011;67988;60.086;30.354;2023-07-02T05:37:12;4.93;;;3.25;;
78672;SDS011;67988;60.086;30.354;2023-07-02T05:39:40;3.72;;;2.88;;
78672;SDS011;67988;60.086;30.354;2023-07-02T05:42:08;6.00;;;2.92;;
78672;SDS011;67988;60.086;30.354;2023-07-02T05:44:35;4.68;;;2.80;;
78672;SDS011;67988;60.086;30.354;2023-07-02T05:47:02;4.97;;;2.63;;
78672;SDS011;67988;60.086;30.354;2023-07-02T05:49:29;5.60;;;2.70;;
78672;SDS011;67988;60.086;30.354;2023-07-02T05:51:56;3.15;;;1.95;;
78672;SDS011;67988;60.086;30.354;2023-07-02T05:54:23;5.38;;;3.45;;
78672;SDS011;67988;60.086;30.354;2023-07-02T05:56:51;7.88;;;4.93;;
78672;SDS011;67988;60.086;30.354;2023-07-02T05:59:18;5.07;;;3.75;;
78672;SDS011;67988;60.086;30.354;2023-07-02T06:01:45;9.57;;;5.68;;
78672;SDS011;67988;60.086;30.354;2023-07-02T06:04:13;7.57;;;6.80;;
78672;SDS011;67988;60.086;30.354;2023-07-02T06:06:40;8.70;;;5.90;;
78672;SDS011;67988;60.086;30.354;2023-07-02T06:09:07;9.27;;;5.38;;
78672;SDS011;67988;60.086;30.354;2023-07-02T06:11:34;11.70;;;6.78;;
78672;SDS011;67988;60.086;30.354;2023-07-02T06:14:02;7.15;;;5.75;;
78672;SDS011;67988;60.086;30.354;2023-07-02T06:16:29;8.40;;;7.05;;
78672;SDS011;67988;60.086;30.354;2023-07-02T06:18:56;7.07;;;6.07;;
78672;SDS011;67988;60.086;30.354;2023-07-02T06:21:23;6.93;;;5.45;;
78672;SDS011;67988;60.086;30.354;2023-07-02T06:23:55;7.07;;;5.03;;
78672;SDS011;67988;60.086;30.354;2023-07-02T06:26:22;8.23;;;4.55;;
78672;SDS011;67988;60.086;30.354;2023-07-02T06:28:49;4.63;;;3.10;;
78672;SDS011;67988;60.086;30.354;2023-07-02T06:31:18;4.53;;;3.13;;
78672;SDS011;67988;60.086;30.354;2023-07-02T06:33:45;4.68;;;3.35;;
78672;SDS011;67988;60.086;30.354;2023-07-02T06:36:12;5.55;;;3.00;;
78672;SDS011;67988;60.086;30.354;2023-07-02T06:38:40;2.55;;;2.15;;
78672;SDS011;67988;60.086;30.354;2023-07-02T06:41:07;7.47;;;3.28;;
78672;SDS011;67988;60.086;30.354;2023-07-02T06:43:34;2.55;;;1.75;;
78672;SDS011;67988;60.086;30.354;2023-07-02T06:46:01;4.50;;;2.88;;
78672;SDS011;67988;60.086;30.354;2023-07-02T06:48:29;6.82;;;2.58;;
78672;SDS011;67988;60.086;30.354;2023-07-02T06:50:56;4.50;;;2.65;;
78672;SDS011;67988;60.086;30.354;2023-07-02T06:53:23;4.97;;;1.90;;
78672;SDS011;67988;60.086;30.354;2023-07-02T06:55:50;3.72;;;1.98;;
78672;SDS011;67988;60.086;30.354;2023-07-02T06:58:17;2.33;;;1.63;;
78672;SDS011;67988;60.086;30.354;2023-07-02T07:00:45;1.88;;;1.30;;
78672;SDS011;67988;60.086;30.354;2023-07-02T07:03:12;4.72;;;1.85;;
78672;SDS011;67988;60.086;30.354;2023-07-02T07:05:40;3.42;;;1.02;;
78672;SDS011;67988;60.086;30.354;2023-07-02T07:08:07;3.65;;;1.80;;
78672;SDS011;67988;60.086;30.354;2023-07-02T07:10:34;2.88;;;1.75;;
78672;SDS011;67988;60.086;30.354;2023-07-02T07:13:01;2.10;;;1.52;;
78672;SDS011;67988;60.086;30.354;2023-07-02T07:15:29;3.17;;;1.88;;
78672;SDS011;67988;60.086;30.354;2023-07-02T07:17:58;3.92;;;2.30;;
78672;SDS011;67988;60.086;30.354;2023-07-02T07:20:25;4.03;;;2.97;;
78672;SDS011;67988;60.086;30.354;2023-07-02T07:22:54;7.55;;;2.97;;
78672;SDS011;67988;60.086;30.354;2023-07-02T07:25:21;6.93;;;2.92;;
78672;SDS011;67988;60.086;30.354;2023-07-02T07:27:48;4.88;;;3.25;;
78672;SDS011;67988;60.086;30.354;2023-07-02T07:30:15;5.85;;;2.65;;
78672;SDS011;67988;60.086;30.354;2023-07-02T07:32:47;5.40;;;3.13;;
78672;SDS011;67988;60.086;30.354;2023-07-02T07:35:15;6.97;;;4.15;;
78672;SDS011;67988;60.086;30.354;2023-07-02T07:37:42;9.25;;;4.00;;
78672;SDS011;67988;60.086;30.354;2023-07-02T07:40:11;5.80;;;4.85;;
78672;SDS011;67988;60.086;30.354;2023-07-02T07:42:39;3.20;;;2.85;;
78672;SDS011;67988;60.086;30.354;2023-07-02T07:45:07;8.77;;;4.28;;
78672;SDS011;67988;60.086;30.354;2023-07-02T07:47:34;7.57;;;4.22;;
78672;SDS011;67988;60.086;30.354;2023-07-02T07:50:01;8.85;;;3.83;;
78672;SDS011;67988;60.086;30.354;2023-07-02T07:52:34;5.03;;;3.80;;
78672;SDS011;67988;60.086;30.354;2023-07-02T07:55:01;8.52;;;4.38;;
78672;SDS011;67988;60.086;30.354;2023-07-02T07:57:29;6.57;;;3.95;;
78672;SDS011;67988;60.086;30.354;2023-07-02T07:59:57;5.28;;;4.05;;
78672;SDS011;67988;60.086;30.354;2023-07-02T08:02:23;7.18;;;4.78;;
78672;SDS011;67988;60.086;30.354;2023-07-02T08:04:50;8.45;;;4.30;;
78672;SDS011;67988;60.086;30.354;2023-07-02T08:07:18;7.70;;;4.57;;
78672;SDS011;67988;60.086;30.354;2023-07-02T08:09:45;7.68;;;4.45;;
78672;SDS011;67988;60.086;30.354;2023-07-02T08:12:12;5.95;;;2.97;;
78672;SDS011;67988;60.086;30.354;2023-07-02T08:14:40;8.48;;;4.43;;
78672;SDS011;67988;60.086;30.354;2023-07-02T08:17:07;5.07;;;3.50;;
78672;SDS011;67988;60.086;30.354;2023-07-02T08:19:34;7.65;;;4.03;;
78672;SDS011;67988;60.086;30.354;2023-07-02T08:22:01;6.68;;;3.83;;
78672;SDS011;67988;60.086;30.354;2023-07-02T08:24:29;5.43;;;3.80;;
78672;SDS011;67988;60.086;30.354;2023-07-02T08:26:57;7.85;;;4.43;;
78672;SDS011;67988;60.086;30.354;2023-07-02T08:29:24;9.05;;;4.57;;
78672;SDS011;67988;60.086;30.354;2023-07-02T08:31:53;4.65;;;3.85;;
78672;SDS011;67988;60.086;30.354;2023-07-02T08:34:20;5.43;;;3.72;;
78672;SDS011;67988;60.086;30.354;2023-07-02T08:36:47;6.82;;;4.63;;
78672;SDS011;67988;60.086;30.354;2023-07-02T08:39:14;4.25;;;3.17;;
78672;SDS011;67988;60.086;30.354;2023-07-02T08:41:41;5.78;;;3.67;;
78672;SDS011;67988;60.086;30.354;2023-07-02T08:44:09;7.43;;;4.15;;
78672;SDS011;67988;60.086;30.354;2023-07-02T08:46:38;9.25;;;4.03;;
78672;SDS011;67988;60.086;30.354;2023-07-02T08:49:08;5.43;;;3.63;;
78672;SDS011;67988;60.086;30.354;2023-07-02T08:51:35;5.30;;;3.95;;
78672;SDS011;67988;60.086;30.354;2023-07-02T08:54:02;7.18;;;4.15;;
78672;SDS011;67988;60.086;30.354;2023-07-02T08:56:30;5.10;;;4.60;;
78672;SDS011;67988;60.086;30.354;2023-07-02T08:58:57;5.25;;;3.88;;
78672;SDS011;67988;60.086;30.354;2023-07-02T09:01:24;7.15;;;4.55;;
78672;SDS011;67988;60.086;30.354;2023-07-02T09:03:51;5.05;;;3.35;;
78672;SDS011;67988;60.086;30.354;2023-07-02T09:06:19;4.97;;;4.25;;
78672;SDS011;67988;60.086;30.354;2023-07-02T09:08:47;5.03;;;4.53;;
78672;SDS011;67988;60.086;30.354;2023-07-02T09:11:14;6.75;;;4.32;;
78672;SDS011;67988;60.086;30.354;2023-07-02T09:13:43;7.65;;;3.97;;
78672;SDS011;67988;60.086;30.354;2023-07-02T09:18:58;5.18;;;3.67;;
78672;SDS011;67988;60.086;30.354;2023-07-02T09:21:37;10.10;;;4.15;;
78672;SDS011;67988;60.086;30.354;2023-07-02T09:24:14;4.80;;;4.00;;
78672;SDS011;67988;60.086;30.354;2023-07-02T09:26:42;6.38;;;3.40;;
78672;SDS011;67988;60.086;30.354;2023-07-02T09:29:11;4.82;;;3.33;;
78672;SDS011;67988;60.086;30.354;2023-07-02T09:31:44;4.28;;;3.30;;
78672;SDS011;67988;60.086;30.354;2023-07-02T09:34:12;5.47;;;3.88;;
78672;SDS011;67988;60.086;30.354;2023-07-02T09:36:41;5.68;;;4.45;;
78672;SDS011;67988;60.086;30.354;2023-07-02T09:39:10;4.80;;;3.80;;
78672;SDS011;67988;60.086;30.354;2023-07-02T09:41:39;5.75;;;4.50;;
78672;SDS011;67988;60.086;30.354;2023-07-02T09:44:07;5.93;;;3.83;;
78672;SDS011;67988;60.086;30.354;2023-07-02T09:46:36;7.80;;;4.20;;
78672;SDS011;67988;60.086;30.354;2023-07-02T09:49:08;5.28;;;3.67;;
78672;SDS011;67988;60.086;30.354;2023-07-02T09:51:42;5.07;;;4.10;;
78672;SDS011;67988;60.086;30.354;2023-07-02T09:54:10;5.72;;;3.63;;
78672;SDS011;67988;60.086;30.354;2023-07-02T09:56:37;6.68;;;5.32;;
78672;SDS011;67988;60.086;30.354;2023-07-02T09:59:06;6.15;;;4.32;;
78672;SDS011;67988;60.086;30.354;2023-07-02T10:01:33;9.23;;;4.43;;
78672;SDS011;67988;60.086;30.354;2023-07-02T10:04:09;5.13;;;3.65;;
78672;SDS011;67988;60.086;30.354;2023-07-02T10:06:45;6.32;;;4.97;;
78672;SDS011;67988;60.086;30.354;2023-07-02T10:09:16;7.60;;;4.70;;
78672;SDS011;67988;60.086;30.354;2023-07-02T10:11:43;5.90;;;4.45;;
78672;SDS011;67988;60.086;30.354;2023-07-02T10:14:11;6.75;;;4.43;;
78672;SDS011;67988;60.086;30.354;2023-07-02T10:16:48;4.65;;;3.90;;
78672;SDS011;67988;60.086;30.354;2023-07-02T10:19:16;6.57;;;5.00;;
78672;SDS011;67988;60.086;30.354;2023-07-02T10:21:44;9.93;;;4.93;;
78672;SDS011;67988;60.086;30.354;2023-07-02T10:24:12;5.20;;;3.50;;
78672;SDS011;67988;60.086;30.354;2023-07-02T10:26:51;7.43;;;4.25;;
78672;SDS011;67988;60.086;30.354;2023-07-02T10:29:19;7.53;;;4.05;;
78672;SDS011;67988;60.086;30.354;2023-07-02T10:31:50;8.00;;;4.82;;
78672;SDS011;67988;60.086;30.354;2023-07-02T10:34:27;7.25;;;4.20;;
78672;SDS011;67988;60.086;30.354;2023-07-02T10:36:57;7.63;;;3.63;;
78672;SDS011;67988;60.086;30.354;2023-07-02T10:39:24;5.70;;;4.18;;
78672;SDS011;67988;60.086;30.354;2023-07-02T10:41:51;4.72;;;4.13;;
78672;SDS011;67988;60.086;30.354;2023-07-02T10:44:18;4.72;;;3.95;;
78672;SDS011;67988;60.086;30.354;2023-07-02T10:46:46;4.63;;;3.90;;
78672;SDS011;67988;60.086;30.354;2023-07-02T10:49:13;5.72;;;3.85;;
78672;SDS011;67988;60.086;30.354;2023-07-02T10:51:41;6.07;;;3.53;;
78672;SDS011;67988;60.086;30.354;2023-07-02T10:54:09;4.97;;;3.85;;
78672;SDS011;67988;60.086;30.354;2023-07-02T10:56:36;4.90;;;3.63;;
78672;SDS011;67988;60.086;30.354;2023-07-02T10:59:03;4.15;;;3.60;;
78672;SDS011;67988;60.086;30.354;2023-07-02T11:01:31;6.47;;;3.50;;
78672;SDS011;67988;60.086;30.354;2023-07-02T11:06:26;5.03;;;3.78;;
78672;SDS011;67988;60.086;30.354;2023-07-02T11:08:54;5.60;;;4.68;;
78672;SDS011;67988;60.086;30.354;2023-07-02T11:13:51;4.32;;;2.60;;
78672;SDS011;67988;60.086;30.354;2023-07-02T11:16:20;3.80;;;3.10;;
78672;SDS011;67988;60.086;30.354;2023-07-02T11:18:51;4.32;;;3.70;;
78672;SDS011;67988;60.086;30.354;2023-07-02T11:21:19;4.43;;;4.03;;
78672;SDS011;67988;60.086;30.354;2023-07-02T11:23:46;4.55;;;3.08;;
78672;SDS011;67988;60.086;30.354;2023-07-02T11:26:13;6.82;;;3.30;;
78672;SDS011;67988;60.086;30.354;2023-07-02T11:28:51;3.80;;;3.47;;
78672;SDS011;67988;60.086;30.354;2023-07-02T11:31:24;5.13;;;3.10;;
78672;SDS011;67988;60.086;30.354;2023-07-02T11:33:53;6.00;;;3.97;;
78672;SDS011;67988;60.086;30.354;2023-07-02T11:36:20;4.20;;;3.30;;
78672;SDS011;67988;60.086;30.354;2023-07-02T11:38:50;6.45;;;3.40;;
78672;SDS011;67988;60.086;30.354;2023-07-02T11:41:18;5.10;;;3.15;;
78672;SDS011;67988;60.086;30.354;2023-07-02T11:43:46;7.53;;;4.03;;
78672;SDS011;67988;60.086;30.354;2023-07-02T11:46:15;4.85;;;4.43;;
78672;SDS011;67988;60.086;30.354;2023-07-02T11:48:43;4.13;;;3.08;;
78672;SDS011;67988;60.086;30.354;2023-07-02T11:51:10;5.07;;;3.05;;
78672;SDS011;67988;60.086;30.354;2023-07-02T11:53:37;5.00;;;3.47;;
78672;SDS011;67988;60.086;30.354;2023-07-02T11:56:04;6.60;;;2.70;;
78672;SDS011;67988;60.086;30.354;2023-07-02T11:58:31;6.22;;;3.67;;
78672;SDS011;67988;60.086;30.354;2023-07-02T12:05:18;7.65;;;3.92;;
78672;SDS011;67988;60.086;30.354;2023-07-02T12:07:46;6.03;;;3.45;;
78672;SDS011;67988;60.086;30.354;2023-07-02T12:10:13;8.00;;;3.92;;
78672;SDS011;67988;60.086;30.354;2023-07-02T12:12:40;5.95;;;5.00;;
78672;SDS011;67988;60.086;30.354;2023-07-02T12:15:07;7.13;;;5.53;;
78672;SDS011;67988;60.086;30.354;2023-07-02T12:17:34;6.95;;;5.00;;
78672;SDS011;67988;60.086;30.354;2023-07-02T12:20:02;7.05;;;5.80;;
78672;SDS011;67988;60.086;30.354;2023-07-02T12:22:31;6.00;;;4.47;;
78672;SDS011;67988;60.086;30.354;2023-07-02T12:24:58;6.85;;;4.22;;
78672;SDS011;67988;60.086;30.354;2023-07-02T12:27:25;5.50;;;4.40;;
78672;SDS011;67988;60.086;30.354;2023-07-02T12:29:52;6.68;;;5.25;;
78672;SDS011;67988;60.086;30.354;2023-07-02T12:35:12;5.55;;;5.05;;
78672;SDS011;67988;60.086;30.354;2023-07-02T12:37:46;8.52;;;5.88;;
78672;SDS011;67988;60.086;30.354;2023-07-02T12:40:15;6.68;;;5.43;;
78672;SDS011;67988;60.086;30.354;2023-07-02T12:42:43;7.15;;;4.50;;
78672;SDS011;67988;60.086;30.354;2023-07-02T12:45:11;5.65;;;5.00;;
78672;SDS011;67988;60.086;30.354;2023-07-02T12:47:39;6.05;;;4.25;;
78672;SDS011;67988;60.086;30.354;2023-07-02T12:50:07;7.82;;;3.78;;
78672;SDS011;67988;60.086;30.354;2023-07-02T12:52:35;5.15;;;3.30;;
78672;SDS011;67988;60.086;30.354;2023-07-02T12:55:04;7.35;;;3.25;;
78672;SDS011;67988;60.086;30.354;2023-07-02T12:57:31;7.38;;;3.53;;
78672;SDS011;67988;60.086;30.354;2023-07-02T12:59:58;3.70;;;3.38;;
78672;SDS011;67988;60.086;30.354;2023-07-02T13:02:25;3.83;;;2.95;;
78672;SDS011;67988;60.086;30.354;2023-07-02T13:04:52;3.88;;;3.28;;
78672;SDS011;67988;60.086;30.354;2023-07-02T13:07:19;3.67;;;3.08;;
78672;SDS011;67988;60.086;30.354;2023-07-02T13:09:48;4.85;;;3.03;;
78672;SDS011;67988;60.086;30.354;2023-07-02T13:12:17;6.15;;;3.03;;
78672;SDS011;67988;60.086;30.354;2023-07-02T13:14:44;3.45;;;3.03;;
78672;SDS011;67988;60.086;30.354;2023-07-02T13:17:11;4.47;;;3.97;;
78672;SDS011;67988;60.086;30.354;2023-07-02T13:19:38;6.00;;;3.40;;
78672;SDS011;67988;60.086;30.354;2023-07-02T13:30:54;8.73;;;3.70;;
78672;SDS011;67988;60.086;30.354;2023-07-02T13:33:21;5.15;;;3.53;;
78672;SDS011;67988;60.086;30.354;2023-07-02T13:35:48;7.55;;;4.20;;
78672;SDS011;67988;60.086;30.354;2023-07-02T13:38:15;6.47;;;3.80;;
78672;SDS011;67988;60.086;30.354;2023-07-02T13:40:42;9.02;;;6.07;;
78672;SDS011;67988;60.086;30.354;2023-07-02T13:43:09;8.30;;;5.70;;
78672;SDS011;67988;60.086;30.354;2023-07-02T13:45:36;7.07;;;5.45;;
78672;SDS011;67988;60.086;30.354;2023-07-02T13:48:05;10.30;;;7.38;;
78672;SDS011;67988;60.086;30.354;2023-07-02T13:50:32;13.63;;;10.65;;
78672;SDS011;67988;60.086;30.354;2023-07-02T13:52:59;14.90;;;9.60;;
78672;SDS011;67988;60.086;30.354;2023-07-02T13:55:26;10.18;;;6.20;;
78672;SDS011;67988;60.086;30.354;2023-07-02T13:57:54;7.75;;;6.18;;
78672;SDS011;67988;60.086;30.354;2023-07-02T14:00:23;8.48;;;5.97;;
78672;SDS011;67988;60.086;30.354;2023-07-02T14:02:50;9.05;;;6.78;;
78672;SDS011;67988;60.086;30.354;2023-07-02T14:05:18;7.60;;;5.07;;
78672;SDS011;67988;60.086;30.354;2023-07-02T14:07:45;9.43;;;5.78;;
78672;SDS011;67988;60.086;30.354;2023-07-02T14:10:13;7.95;;;4.93;;
78672;SDS011;67988;60.086;30.354;2023-07-02T14:12:41;10.50;;;6.03;;
78672;SDS011;67988;60.086;30.354;2023-07-02T14:15:08;5.10;;;4.47;;
78672;SDS011;67988;60.086;30.354;2023-07-02T14:17:38;4.45;;;3.55;;
78672;SDS011;67988;60.086;30.354;2023-07-02T14:20:06;6.97;;;4.85;;
78672;SDS011;67988;60.086;30.354;2023-07-02T14:22:34;6.32;;;4.30;;
78672;SDS011;67988;60.086;30.354;2023-07-02T14:25:01;8.18;;;4.70;;
78672;SDS011;67988;60.086;30.354;2023-07-02T14:27:28;5.60;;;4.20;;
78672;SDS011;67988;60.086;30.354;2023-07-02T14:29:55;5.60;;;3.75;;
78672;SDS011;67988;60.086;30.354;2023-07-02T14:32:23;7.03;;;3.97;;
78672;SDS011;67988;60.086;30.354;2023-07-02T14:34:51;7.43;;;4.45;;
78672;SDS011;67988;60.086;30.354;2023-07-02T14:37:18;5.22;;;3.60;;
78672;SDS011;67988;60.086;30.354;2023-07-02T14:39:45;6.30;;;4.57;;
78672;SDS011;67988;60.086;30.354;2023-07-02T14:42:12;9.48;;;8.43;;
78672;SDS011;67988;60.086;30.354;2023-07-02T14:44:39;6.80;;;5.38;;
78672;SDS011;67988;60.086;30.354;2023-07-02T14:47:07;13.15;;;4.80;;
78672;SDS011;67988;60.086;30.354;2023-07-02T14:49:34;6.70;;;4.60;;
78672;SDS011;67988;60.086;30.354;2023-07-02T14:52:02;8.43;;;4.53;;
78672;SDS011;67988;60.086;30.354;2023-07-02T14:54:30;6.82;;;4.60;;
78672;SDS011;67988;60.086;30.354;2023-07-02T14:56:57;6.38;;;4.15;;
78672;SDS011;67988;60.086;30.354;2023-07-02T14:59:24;7.10;;;4.32;;
78672;SDS011;67988;60.086;30.354;2023-07-02T15:01:51;8.85;;;4.68;;
78672;SDS011;67988;60.086;30.354;2023-07-02T15:04:18;7.30;;;3.80;;
78672;SDS011;67988;60.086;30.354;2023-07-02T15:11:12;5.07;;;3.28;;